sensor_id;sensor_type;location;lat;lon;timestamp;P1;durP1;ratioP1;P2;durP2;ratioP2
14732;SDS011;7457;50.960;6.830;2024-03-23T00:54:46;25.65;;;13.02;;
14732;SDS011;7457;50.960;6.830;2024-03-23T00:57:11;23.08;;;12.43;;
14732;SDS011;7457;50.960;6.830;2024-03-23T00:59:37;23.02;;;11.88;;
14732;SDS011;7457;50.960;6.830;2024-03-23T01:02:03;20.75;;;11.32;;
14732;SDS011;7457;50.960;6.830;2024-03-23T01:04:28;19.77;;;9.68;;
14732;SDS011;7457;50.960;6.830;2024-03-23T01:06:54;16.90;;;8.85;;
14732;SDS011;7457;50.960;6.830;2024-03-23T01:09:20;17.85;;;7.15;;
14732;SDS011;7457;50.960;6.830;2024-03-23T01:11:46;17.58;;;7.50;;
14732;SDS011;7457;50.960;6.830;2024-03-23T01:14:11;7.95;;;5.60;;
14732;SDS011;7457;50.960;6.830;2024-03-23T01:16:37;9.75;;;5.47;;
14732;SDS011;7457;50.960;6.830;2024-03-23T01:19:03;11.98;;;5.57;;
14732;SDS011;7457;50.960;6.830;2024-03-23T01:21:28;11.60;;;5.22;;
14732;SDS011;7457;50.960;6.830;2024-03-23T01:23:54;8.95;;;5.28;;
14732;SDS011;7457;50.960;6.830;2024-03-23T01:26:20;6.85;;;5.22;;
14732;SDS011;7457;50.960;6.830;2024-03-23T01:28:46;12.73;;;5.35;;
14732;SDS011;7457;50.960;6.830;2024-03-23T01:31:12;12.30;;;5.43;;
14732;SDS011;7457;50.960;6.830;2024-03-23T01:33:37;7.25;;;4.90;;
14732;SDS011;7457;50.960;6.830;2024-03-23T01:36:03;9.57;;;5.88;;
14732;SDS011;7457;50.960;6.830;2024-03-23T01:38:29;10.57;;;5.97;;
14732;SDS011;7457;50.960;6.830;2024-03-23T01:40:58;11.77;;;6.95;;
14732;SDS011;7457;50.960;6.830;2024-03-23T01:43:24;13.60;;;8.02;;
14732;SDS011;7457;50.960;6.830;2024-03-23T01:45:50;14.73;;;8.73;;
14732;SDS011;7457;50.960;6.830;2024-03-23T01:48:18;17.02;;;9.50;;
14732;SDS011;7457;50.960;6.830;2024-03-23T01:50:45;13.88;;;8.68;;
14732;SDS011;7457;50.960;6.830;2024-03-23T01:53:11;15.48;;;9.65;;
14732;SDS011;7457;50.960;6.830;2024-03-23T01:55:38;19.90;;;9.73;;
14732;SDS011;7457;50.960;6.830;2024-03-23T01:58:05;17.08;;;9.85;;
14732;SDS011;7457;50.960;6.830;2024-03-23T02:00:32;17.75;;;10.73;;
14732;SDS011;7457;50.960;6.830;2024-03-23T02:02:57;18.77;;;9.52;;
14732;SDS011;7457;50.960;6.830;2024-03-23T02:05:23;18.13;;;10.65;;
14732;SDS011;7457;50.960;6.830;2024-03-23T02:07:49;18.05;;;8.95;;
14732;SDS011;7457;50.960;6.830;2024-03-23T02:10:16;15.38;;;9.60;;
14732;SDS011;7457;50.960;6.830;2024-03-23T02:12:42;13.25;;;7.18;;
14732;SDS011;7457;50.960;6.830;2024-03-23T02:15:08;5.60;;;3.40;;
14732;SDS011;7457;50.960;6.830;2024-03-23T02:17:34;5.25;;;2.17;;
14732;SDS011;7457;50.960;6.830;2024-03-23T02:20:01;6.38;;;2.13;;
14732;SDS011;7457;50.960;6.830;2024-03-23T02:22:37;5.68;;;2.47;;
14732;SDS011;7457;50.960;6.830;2024-03-23T02:25:04;3.88;;;1.70;;
14732;SDS011;7457;50.960;6.830;2024-03-23T02:27:30;6.38;;;2.65;;
14732;SDS011;7457;50.960;6.830;2024-03-23T02:29:56;4.65;;;1.98;;
14732;SDS011;7457;50.960;6.830;2024-03-23T02:32:22;3.88;;;2.22;;
14732;SDS011;7457;50.960;6.830;2024-03-23T02:34:48;8.65;;;2.85;;
14732;SDS011;7457;50.960;6.830;2024-03-23T02:37:14;6.68;;;2.65;;
14732;SDS011;7457;50.960;6.830;2024-03-23T02:39:39;7.60;;;2.17;;
14732;SDS011;7457;50.960;6.830;2024-03-23T02:42:05;7.30;;;2.90;;
14732;SDS011;7457;50.960;6.830;2024-03-23T02:44:31;7.63;;;2.58;;
14732;SDS011;7457;50.960;6.830;2024-03-23T02:46:56;5.13;;;2.60;;
14732;SDS011;7457;50.960;6.830;2024-03-23T02:49:22;9.52;;;2.90;;
14732;SDS011;7457;50.960;6.830;2024-03-23T02:51:48;6.90;;;2.45;;
14732;SDS011;7457;50.960;6.830;2024-03-23T02:54:14;5.65;;;2.63;;
14732;SDS011;7457;50.960;6.830;2024-03-23T02:56:40;5.55;;;2.25;;
14732;SDS011;7457;50.960;6.830;2024-03-23T02:59:05;7.38;;;2.45;;
14732;SDS011;7457;50.960;6.830;2024-03-23T03:01:31;6.93;;;2.53;;
14732;SDS011;7457;50.960;6.830;2024-03-23T03:03:57;8.30;;;2.55;;
14732;SDS011;7457;50.960;6.830;2024-03-23T03:06:23;8.45;;;2.75;;
14732;SDS011;7457;50.960;6.830;2024-03-23T03:08:50;8.52;;;2.90;;
14732;SDS011;7457;50.960;6.830;2024-03-23T03:11:16;5.10;;;2.40;;
14732;SDS011;7457;50.960;6.830;2024-03-23T03:13:42;7.03;;;2.45;;
14732;SDS011;7457;50.960;6.830;2024-03-23T03:16:11;8.63;;;3.55;;
14732;SDS011;7457;50.960;6.830;2024-03-23T03:18:37;5.32;;;2.40;;
14732;SDS011;7457;50.960;6.830;2024-03-23T03:21:05;5.47;;;2.60;;
14732;SDS011;7457;50.960;6.830;2024-03-23T03:23:36;4.65;;;2.58;;
14732;SDS011;7457;50.960;6.830;2024-03-23T03:26:02;4.80;;;2.22;;
14732;SDS011;7457;50.960;6.830;2024-03-23T03:28:28;7.85;;;3.10;;
14732;SDS011;7457;50.960;6.830;2024-03-23T03:30:56;8.70;;;2.95;;
14732;SDS011;7457;50.960;6.830;2024-03-23T03:33:22;6.00;;;2.40;;
14732;SDS011;7457;50.960;6.830;2024-03-23T03:35:48;8.00;;;2.90;;
14732;SDS011;7457;50.960;6.830;2024-03-23T03:38:14;9.82;;;2.45;;
14732;SDS011;7457;50.960;6.830;2024-03-23T03:40:41;5.07;;;2.50;;
14732;SDS011;7457;50.960;6.830;2024-03-23T03:43:07;6.50;;;2.78;;
14732;SDS011;7457;50.960;6.830;2024-03-23T03:45:32;4.82;;;2.25;;
14732;SDS011;7457;50.960;6.830;2024-03-23T03:47:58;7.72;;;2.88;;
14732;SDS011;7457;50.960;6.830;2024-03-23T03:50:24;7.88;;;2.90;;
14732;SDS011;7457;50.960;6.830;2024-03-23T03:52:50;10.30;;;3.35;;
14732;SDS011;7457;50.960;6.830;2024-03-23T03:55:16;6.05;;;2.60;;
14732;SDS011;7457;50.960;6.830;2024-03-23T03:57:42;6.18;;;3.00;;
14732;SDS011;7457;50.960;6.830;2024-03-23T04:00:08;7.18;;;2.90;;
14732;SDS011;7457;50.960;6.830;2024-03-23T04:02:37;7.43;;;3.15;;
14732;SDS011;7457;50.960;6.830;2024-03-23T04:05:03;9.68;;;2.70;;
14732;SDS011;7457;50.960;6.830;2024-03-23T04:07:29;12.38;;;3.10;;
14732;SDS011;7457;50.960;6.830;2024-03-23T04:09:55;9.70;;;2.50;;
14732;SDS011;7457;50.960;6.830;2024-03-23T04:12:21;9.98;;;3.67;;
14732;SDS011;7457;50.960;6.830;2024-03-23T04:14:47;7.03;;;3.20;;
14732;SDS011;7457;50.960;6.830;2024-03-23T04:17:12;7.28;;;2.88;;
14732;SDS011;7457;50.960;6.830;2024-03-23T04:19:38;7.55;;;2.78;;
14732;SDS011;7457;50.960;6.830;2024-03-23T04:22:04;15.73;;;4.03;;
14732;SDS011;7457;50.960;6.830;2024-03-23T04:24:30;6.15;;;2.95;;
14732;SDS011;7457;50.960;6.830;2024-03-23T04:26:56;9.30;;;2.80;;
14732;SDS011;7457;50.960;6.830;2024-03-23T04:29:21;4.63;;;2.55;;
14732;SDS011;7457;50.960;6.830;2024-03-23T04:31:47;10.80;;;3.55;;
14732;SDS011;7457;50.960;6.830;2024-03-23T04:34:13;16.20;;;3.80;;
14732;SDS011;7457;50.960;6.830;2024-03-23T04:36:39;12.55;;;3.90;;
14732;SDS011;7457;50.960;6.830;2024-03-23T04:39:05;9.60;;;3.55;;
14732;SDS011;7457;50.960;6.830;2024-03-23T04:41:34;11.43;;;3.20;;
14732;SDS011;7457;50.960;6.830;2024-03-23T04:44:00;6.50;;;2.88;;
14732;SDS011;7457;50.960;6.830;2024-03-23T04:46:26;8.05;;;2.97;;
14732;SDS011;7457;50.960;6.830;2024-03-23T04:48:52;9.13;;;3.15;;
14732;SDS011;7457;50.960;6.830;2024-03-23T04:51:21;7.80;;;3.50;;
14732;SDS011;7457;50.960;6.830;2024-03-23T04:53:50;10.55;;;3.95;;
14732;SDS011;7457;50.960;6.830;2024-03-23T04:56:16;8.63;;;3.20;;
14732;SDS011;7457;50.960;6.830;2024-03-23T04:58:42;10.57;;;3.47;;
14732;SDS011;7457;50.960;6.830;2024-03-23T05:01:08;7.18;;;3.65;;
14732;SDS011;7457;50.960;6.830;2024-03-23T05:03:36;7.47;;;3.20;;
14732;SDS011;7457;50.960;6.830;2024-03-23T05:06:02;10.10;;;3.58;;
14732;SDS011;7457;50.960;6.830;2024-03-23T05:08:28;10.07;;;3.22;;
14732;SDS011;7457;50.960;6.830;2024-03-23T05:10:55;9.23;;;3.20;;
14732;SDS011;7457;50.960;6.830;2024-03-23T05:13:21;9.98;;;3.90;;
14732;SDS011;7457;50.960;6.830;2024-03-23T05:15:53;11.30;;;3.60;;
14732;SDS011;7457;50.960;6.830;2024-03-23T05:18:19;7.22;;;3.42;;
14732;SDS011;7457;50.960;6.830;2024-03-23T05:20:46;7.50;;;2.85;;
14732;SDS011;7457;50.960;6.830;2024-03-23T05:23:11;6.95;;;3.05;;
14732;SDS011;7457;50.960;6.830;2024-03-23T05:25:37;7.28;;;3.88;;
14732;SDS011;7457;50.960;6.830;2024-03-23T05:28:03;13.65;;;3.13;;
14732;SDS011;7457;50.960;6.830;2024-03-23T05:30:29;9.80;;;3.75;;
14732;SDS011;7457;50.960;6.830;2024-03-23T05:32:55;12.27;;;3.92;;
14732;SDS011;7457;50.960;6.830;2024-03-23T05:35:20;6.85;;;3.22;;
14732;SDS011;7457;50.960;6.830;2024-03-23T05:37:46;9.25;;;3.53;;
14732;SDS011;7457;50.960;6.830;2024-03-23T05:40:12;12.75;;;3.55;;
14732;SDS011;7457;50.960;6.830;2024-03-23T05:42:40;13.32;;;3.65;;
14732;SDS011;7457;50.960;6.830;2024-03-23T05:45:06;11.13;;;3.92;;
14732;SDS011;7457;50.960;6.830;2024-03-23T05:47:33;17.73;;;4.07;;
14732;SDS011;7457;50.960;6.830;2024-03-23T05:49:59;16.50;;;4.22;;
14732;SDS011;7457;50.960;6.830;2024-03-23T05:52:24;8.32;;;3.38;;
14732;SDS011;7457;50.960;6.830;2024-03-23T05:54:50;12.18;;;3.95;;
14732;SDS011;7457;50.960;6.830;2024-03-23T05:57:16;13.00;;;4.30;;
14732;SDS011;7457;50.960;6.830;2024-03-23T05:59:44;9.68;;;4.18;;
14732;SDS011;7457;50.960;6.830;2024-03-23T06:02:09;12.38;;;3.90;;
14732;SDS011;7457;50.960;6.830;2024-03-23T06:04:35;9.77;;;3.70;;
14732;SDS011;7457;50.960;6.830;2024-03-23T06:07:02;12.77;;;3.72;;
14732;SDS011;7457;50.960;6.830;2024-03-23T06:09:28;12.00;;;4.25;;
14732;SDS011;7457;50.960;6.830;2024-03-23T06:11:56;10.50;;;3.67;;
14732;SDS011;7457;50.960;6.830;2024-03-23T06:14:22;13.93;;;3.72;;
14732;SDS011;7457;50.960;6.830;2024-03-23T06:16:47;10.68;;;4.07;;
14732;SDS011;7457;50.960;6.830;2024-03-23T06:19:14;13.57;;;4.18;;
14732;SDS011;7457;50.960;6.830;2024-03-23T06:21:43;11.52;;;4.00;;
14732;SDS011;7457;50.960;6.830;2024-03-23T06:24:09;14.82;;;3.42;;
14732;SDS011;7457;50.960;6.830;2024-03-23T06:26:38;7.18;;;4.20;;
14732;SDS011;7457;50.960;6.830;2024-03-23T06:29:04;11.35;;;3.75;;
14732;SDS011;7457;50.960;6.830;2024-03-23T06:31:30;9.85;;;3.90;;
14732;SDS011;7457;50.960;6.830;2024-03-23T06:33:56;10.35;;;3.58;;
14732;SDS011;7457;50.960;6.830;2024-03-23T06:36:22;8.88;;;4.00;;
14732;SDS011;7457;50.960;6.830;2024-03-23T06:38:47;6.90;;;3.33;;
14732;SDS011;7457;50.960;6.830;2024-03-23T06:41:13;11.30;;;3.90;;
14732;SDS011;7457;50.960;6.830;2024-03-23T06:43:39;10.93;;;3.30;;
14732;SDS011;7457;50.960;6.830;2024-03-23T06:46:05;11.00;;;3.08;;
14732;SDS011;7457;50.960;6.830;2024-03-23T06:48:30;9.25;;;3.53;;
14732;SDS011;7457;50.960;6.830;2024-03-23T06:50:56;12.30;;;3.75;;
14732;SDS011;7457;50.960;6.830;2024-03-23T06:53:22;15.27;;;3.70;;
14732;SDS011;7457;50.960;6.830;2024-03-23T06:55:52;6.60;;;3.42;;
14732;SDS011;7457;50.960;6.830;2024-03-23T06:58:21;9.23;;;3.70;;
14732;SDS011;7457;50.960;6.830;2024-03-23T07:00:49;7.25;;;3.05;;
14732;SDS011;7457;50.960;6.830;2024-03-23T07:03:16;12.85;;;3.28;;
14732;SDS011;7457;50.960;6.830;2024-03-23T07:05:42;11.35;;;3.60;;
14732;SDS011;7457;50.960;6.830;2024-03-23T07:08:07;7.57;;;3.83;;
14732;SDS011;7457;50.960;6.830;2024-03-23T07:10:33;6.43;;;4.00;;
14732;SDS011;7457;50.960;6.830;2024-03-23T07:12:59;10.05;;;3.80;;
14732;SDS011;7457;50.960;6.830;2024-03-23T07:15:25;9.15;;;4.47;;
14732;SDS011;7457;50.960;6.830;2024-03-23T07:17:50;10.50;;;4.47;;
14732;SDS011;7457;50.960;6.830;2024-03-23T07:20:16;11.98;;;4.30;;
14732;SDS011;7457;50.960;6.830;2024-03-23T07:22:42;9.63;;;4.90;;
14732;SDS011;7457;50.960;6.830;2024-03-23T07:25:10;9.00;;;5.68;;
14732;SDS011;7457;50.960;6.830;2024-03-23T07:27:36;9.48;;;5.20;;
14732;SDS011;7457;50.960;6.830;2024-03-23T07:30:02;10.38;;;5.35;;
14732;SDS011;7457;50.960;6.830;2024-03-23T07:32:28;10.02;;;5.70;;
14732;SDS011;7457;50.960;6.830;2024-03-23T07:34:53;10.90;;;5.00;;
14732;SDS011;7457;50.960;6.830;2024-03-23T07:37:19;12.73;;;5.18;;
14732;SDS011;7457;50.960;6.830;2024-03-23T07:39:45;12.73;;;5.22;;
14732;SDS011;7457;50.960;6.830;2024-03-23T07:42:10;11.95;;;5.60;;
14732;SDS011;7457;50.960;6.830;2024-03-23T07:44:36;12.95;;;5.65;;
14732;SDS011;7457;50.960;6.830;2024-03-23T07:47:02;13.85;;;5.82;;
14732;SDS011;7457;50.960;6.830;2024-03-23T07:49:28;13.77;;;5.82;;
14732;SDS011;7457;50.960;6.830;2024-03-23T07:51:54;8.63;;;5.53;;
14732;SDS011;7457;50.960;6.830;2024-03-23T07:54:20;9.07;;;5.60;;
14732;SDS011;7457;50.960;6.830;2024-03-23T07:56:46;10.60;;;5.38;;
14732;SDS011;7457;50.960;6.830;2024-03-23T07:59:12;7.47;;;5.53;;
14732;SDS011;7457;50.960;6.830;2024-03-23T08:01:37;12.32;;;5.70;;
14732;SDS011;7457;50.960;6.830;2024-03-23T08:04:03;8.10;;;4.53;;
14732;SDS011;7457;50.960;6.830;2024-03-23T08:06:29;7.72;;;3.63;;
14732;SDS011;7457;50.960;6.830;2024-03-23T08:08:55;8.52;;;4.05;;
14732;SDS011;7457;50.960;6.830;2024-03-23T08:11:25;11.75;;;4.97;;
14732;SDS011;7457;50.960;6.830;2024-03-23T08:13:55;10.75;;;4.10;;
14732;SDS011;7457;50.960;6.830;2024-03-23T08:16:21;10.82;;;3.47;;
14732;SDS011;7457;50.960;6.830;2024-03-23T08:18:47;8.73;;;2.90;;
14732;SDS011;7457;50.960;6.830;2024-03-23T08:21:13;4.30;;;2.85;;
14732;SDS011;7457;50.960;6.830;2024-03-23T08:23:39;6.15;;;2.72;;
14732;SDS011;7457;50.960;6.830;2024-03-23T08:26:06;6.10;;;2.80;;
14732;SDS011;7457;50.960;6.830;2024-03-23T08:28:33;5.72;;;3.05;;
14732;SDS011;7457;50.960;6.830;2024-03-23T08:31:03;9.75;;;4.03;;
14732;SDS011;7457;50.960;6.830;2024-03-23T08:33:30;8.52;;;3.80;;
14732;SDS011;7457;50.960;6.830;2024-03-23T08:35:57;9.25;;;4.35;;
14732;SDS011;7457;50.960;6.830;2024-03-23T08:38:25;6.97;;;4.20;;
14732;SDS011;7457;50.960;6.830;2024-03-23T08:41:01;11.60;;;4.70;;
14732;SDS011;7457;50.960;6.830;2024-03-23T08:43:32;10.20;;;5.00;;
14732;SDS011;7457;50.960;6.830;2024-03-23T08:46:03;12.15;;;5.47;;
14732;SDS011;7457;50.960;6.830;2024-03-23T08:48:30;16.55;;;5.28;;
14732;SDS011;7457;50.960;6.830;2024-03-23T08:51:03;11.32;;;5.07;;
14732;SDS011;7457;50.960;6.830;2024-03-23T08:53:30;8.50;;;5.22;;
14732;SDS011;7457;50.960;6.830;2024-03-23T08:55:56;7.85;;;5.13;;
14732;SDS011;7457;50.960;6.830;2024-03-23T08:58:23;19.33;;;6.82;;
14732;SDS011;7457;50.960;6.830;2024-03-23T09:00:51;12.35;;;5.30;;
14732;SDS011;7457;50.960;6.830;2024-03-23T09:03:17;19.48;;;8.25;;
14732;SDS011;7457;50.960;6.830;2024-03-23T09:05:43;9.95;;;5.10;;
14732;SDS011;7457;50.960;6.830;2024-03-23T09:08:09;11.43;;;4.82;;
14732;SDS011;7457;50.960;6.830;2024-03-23T09:10:38;11.13;;;4.72;;
14732;SDS011;7457;50.960;6.830;2024-03-23T09:13:05;15.70;;;5.25;;
14732;SDS011;7457;50.960;6.830;2024-03-23T09:15:35;13.05;;;4.85;;
14732;SDS011;7457;50.960;6.830;2024-03-23T09:18:02;10.07;;;4.43;;
14732;SDS011;7457;50.960;6.830;2024-03-23T09:20:28;11.43;;;5.30;;
14732;SDS011;7457;50.960;6.830;2024-03-23T09:22:57;7.10;;;4.07;;
14732;SDS011;7457;50.960;6.830;2024-03-23T09:25:23;8.15;;;4.00;;
14732;SDS011;7457;50.960;6.830;2024-03-23T09:27:49;8.38;;;3.70;;
14732;SDS011;7457;50.960;6.830;2024-03-23T09:30:15;10.93;;;4.85;;
14732;SDS011;7457;50.960;6.830;2024-03-23T09:32:43;11.00;;;4.75;;
14732;SDS011;7457;50.960;6.830;2024-03-23T09:35:09;7.97;;;3.72;;
14732;SDS011;7457;50.960;6.830;2024-03-23T09:37:35;9.18;;;3.60;;
14732;SDS011;7457;50.960;6.830;2024-03-23T09:40:02;8.57;;;3.63;;
14732;SDS011;7457;50.960;6.830;2024-03-23T09:42:28;11.13;;;3.90;;
14732;SDS011;7457;50.960;6.830;2024-03-23T09:44:55;9.10;;;4.28;;
14732;SDS011;7457;50.960;6.830;2024-03-23T09:47:23;11.65;;;4.40;;
14732;SDS011;7457;50.960;6.830;2024-03-23T09:49:50;8.30;;;3.30;;
14732;SDS011;7457;50.960;6.830;2024-03-23T09:52:16;8.02;;;3.15;;
14732;SDS011;7457;50.960;6.830;2024-03-23T09:54:42;5.32;;;2.70;;
14732;SDS011;7457;50.960;6.830;2024-03-23T09:57:08;6.82;;;2.63;;
14732;SDS011;7457;50.960;6.830;2024-03-23T09:59:33;8.82;;;2.83;;
14732;SDS011;7457;50.960;6.830;2024-03-23T10:02:01;6.95;;;2.63;;
14732;SDS011;7457;50.960;6.830;2024-03-23T10:04:39;10.30;;;2.90;;
14732;SDS011;7457;50.960;6.830;2024-03-23T10:07:13;7.75;;;2.90;;
14732;SDS011;7457;50.960;6.830;2024-03-23T10:09:39;11.02;;;3.42;;
14732;SDS011;7457;50.960;6.830;2024-03-23T10:12:12;8.63;;;3.10;;
14732;SDS011;7457;50.960;6.830;2024-03-23T10:14:39;8.95;;;2.78;;
14732;SDS011;7457;50.960;6.830;2024-03-23T10:19:44;8.55;;;2.55;;
14732;SDS011;7457;50.960;6.830;2024-03-23T10:22:20;4.72;;;2.60;;
14732;SDS011;7457;50.960;6.830;2024-03-23T10:24:48;9.57;;;3.17;;
14732;SDS011;7457;50.960;6.830;2024-03-23T10:27:20;8.07;;;3.08;;
14732;SDS011;7457;50.960;6.830;2024-03-23T10:29:49;5.63;;;2.30;;
14732;SDS011;7457;50.960;6.830;2024-03-23T10:32:17;7.18;;;2.28;;
14732;SDS011;7457;50.960;6.830;2024-03-23T10:34:43;4.30;;;2.00;;
14732;SDS011;7457;50.960;6.830;2024-03-23T10:37:10;5.57;;;2.30;;
14732;SDS011;7457;50.960;6.830;2024-03-23T10:39:40;3.95;;;1.95;;
14732;SDS011;7457;50.960;6.830;2024-03-23T10:42:07;4.03;;;2.58;;
14732;SDS011;7457;50.960;6.830;2024-03-23T10:44:34;5.93;;;2.28;;
14732;SDS011;7457;50.960;6.830;2024-03-23T10:47:00;6.10;;;2.42;;
14732;SDS011;7457;50.960;6.830;2024-03-23T10:49:28;3.15;;;1.52;;
14732;SDS011;7457;50.960;6.830;2024-03-23T10:51:56;2.53;;;1.40;;
14732;SDS011;7457;50.960;6.830;2024-03-23T10:54:24;3.70;;;1.40;;
14732;SDS011;7457;50.960;6.830;2024-03-23T10:56:51;4.13;;;2.00;;
14732;SDS011;7457;50.960;6.830;2024-03-23T10:59:22;4.03;;;2.03;;
14732;SDS011;7457;50.960;6.830;2024-03-23T11:04:32;5.57;;;2.05;;
14732;SDS011;7457;50.960;6.830;2024-03-23T11:06:59;6.18;;;3.30;;
14732;SDS011;7457;50.960;6.830;2024-03-23T11:12:16;7.85;;;2.42;;
14732;SDS011;7457;50.960;6.830;2024-03-23T11:17:30;4.45;;;1.10;;
14732;SDS011;7457;50.960;6.830;2024-03-23T11:22:46;5.47;;;1.63;;
14732;SDS011;7457;50.960;6.830;2024-03-23T11:27:38;3.63;;;1.30;;
14732;SDS011;7457;50.960;6.830;2024-03-23T11:30:16;2.72;;;1.40;;
14732;SDS011;7457;50.960;6.830;2024-03-23T11:32:48;3.15;;;1.45;;
14732;SDS011;7457;50.960;6.830;2024-03-23T11:35:30;3.17;;;1.10;;
14732;SDS011;7457;50.960;6.830;2024-03-23T11:40:39;1.98;;;1.40;;
14732;SDS011;7457;50.960;6.830;2024-03-23T11:43:12;3.65;;;1.63;;
14732;SDS011;7457;50.960;6.830;2024-03-23T11:45:48;4.03;;;1.40;;
14732;SDS011;7457;50.960;6.830;2024-03-23T11:48:20;4.45;;;1.63;;
14732;SDS011;7457;50.960;6.830;2024-03-23T11:50:47;4.15;;;1.85;;
14732;SDS011;7457;50.960;6.830;2024-03-23T11:53:18;5.32;;;2.30;;
14732;SDS011;7457;50.960;6.830;2024-03-23T11:55:46;6.03;;;2.00;;
14732;SDS011;7457;50.960;6.830;2024-03-23T11:58:12;5.47;;;1.88;;
14732;SDS011;7457;50.960;6.830;2024-03-23T12:00:39;6.07;;;1.50;;
14732;SDS011;7457;50.960;6.830;2024-03-23T12:03:05;4.47;;;1.58;;
14732;SDS011;7457;50.960;6.830;2024-03-23T12:05:32;2.83;;;1.70;;
14732;SDS011;7457;50.960;6.830;2024-03-23T12:10:53;3.00;;;1.50;;
14732;SDS011;7457;50.960;6.830;2024-03-23T12:13:40;3.95;;;1.73;;
14732;SDS011;7457;50.960;6.830;2024-03-23T12:16:26;2.40;;;1.70;;
14732;SDS011;7457;50.960;6.830;2024-03-23T12:18:52;2.35;;;1.35;;
14732;SDS011;7457;50.960;6.830;2024-03-23T12:21:18;4.82;;;1.60;;
14732;SDS011;7457;50.960;6.830;2024-03-23T12:23:44;3.05;;;1.55;;
14732;SDS011;7457;50.960;6.830;2024-03-23T12:26:12;3.75;;;1.50;;
14732;SDS011;7457;50.960;6.830;2024-03-23T12:28:37;2.78;;;1.38;;
14732;SDS011;7457;50.960;6.830;2024-03-23T12:31:04;1.42;;;1.33;;
14732;SDS011;7457;50.960;6.830;2024-03-23T12:33:30;2.10;;;1.40;;
14732;SDS011;7457;50.960;6.830;2024-03-23T12:35:56;2.38;;;1.67;;
14732;SDS011;7457;50.960;6.830;2024-03-23T12:38:22;2.10;;;1.63;;
14732;SDS011;7457;50.960;6.830;2024-03-23T12:40:48;2.35;;;1.70;;
14732;SDS011;7457;50.960;6.830;2024-03-23T12:43:14;2.40;;;1.02;;
14732;SDS011;7457;50.960;6.830;2024-03-23T12:45:40;2.20;;;1.52;;
14732;SDS011;7457;50.960;6.830;2024-03-23T12:48:06;3.38;;;2.00;;
14732;SDS011;7457;50.960;6.830;2024-03-23T12:50:32;2.92;;;1.85;;
14732;SDS011;7457;50.960;6.830;2024-03-23T12:52:58;2.35;;;1.40;;
14732;SDS011;7457;50.960;6.830;2024-03-23T12:55:24;4.15;;;3.08;;
14732;SDS011;7457;50.960;6.830;2024-03-23T12:57:50;2.10;;;1.90;;
14732;SDS011;7457;50.960;6.830;2024-03-23T13:00:15;3.42;;;2.67;;
14732;SDS011;7457;50.960;6.830;2024-03-23T13:02:42;2.47;;;2.05;;
14732;SDS011;7457;50.960;6.830;2024-03-23T13:05:08;2.15;;;1.80;;
14732;SDS011;7457;50.960;6.830;2024-03-23T13:07:34;3.15;;;1.50;;
14732;SDS011;7457;50.960;6.830;2024-03-23T13:10:00;4.60;;;1.50;;
14732;SDS011;7457;50.960;6.830;2024-03-23T13:12:27;4.05;;;2.30;;
14732;SDS011;7457;50.960;6.830;2024-03-23T13:14:53;2.22;;;1.70;;
14732;SDS011;7457;50.960;6.830;2024-03-23T13:17:18;5.50;;;2.60;;
14732;SDS011;7457;50.960;6.830;2024-03-23T13:19:44;5.18;;;2.80;;
14732;SDS011;7457;50.960;6.830;2024-03-23T13:22:10;2.40;;;1.95;;
14732;SDS011;7457;50.960;6.830;2024-03-23T13:24:36;2.78;;;2.10;;
14732;SDS011;7457;50.960;6.830;2024-03-23T13:27:03;3.15;;;2.42;;
14732;SDS011;7457;50.960;6.830;2024-03-23T13:29:32;5.50;;;2.60;;
14732;SDS011;7457;50.960;6.830;2024-03-23T13:32:08;4.13;;;2.30;;
14732;SDS011;7457;50.960;6.830;2024-03-23T13:34:34;3.53;;;2.50;;
14732;SDS011;7457;50.960;6.830;2024-03-23T13:37:00;5.68;;;2.38;;
14732;SDS011;7457;50.960;6.830;2024-03-23T13:39:26;7.20;;;3.08;;
14732;SDS011;7457;50.960;6.830;2024-03-23T13:41:54;3.85;;;2.20;;
14732;SDS011;7457;50.960;6.830;2024-03-23T13:44:23;3.75;;;2.28;;
14732;SDS011;7457;50.960;6.830;2024-03-23T13:46:49;1.73;;;1.50;;
14732;SDS011;7457;50.960;6.830;2024-03-23T13:49:27;2.42;;;1.10;;
14732;SDS011;7457;50.960;6.830;2024-03-23T13:51:54;1.00;;;0.90;;
14732;SDS011;7457;50.960;6.830;2024-03-23T13:54:21;1.63;;;1.08;;
14732;SDS011;7457;50.960;6.830;2024-03-23T13:56:53;1.58;;;1.38;;
14732;SDS011;7457;50.960;6.830;2024-03-23T13:59:20;1.80;;;1.27;;
14732;SDS011;7457;50.960;6.830;2024-03-23T14:01:48;2.65;;;1.38;;
14732;SDS011;7457;50.960;6.830;2024-03-23T14:04:14;2.05;;;1.48;;
14732;SDS011;7457;50.960;6.830;2024-03-23T14:06:42;1.92;;;1.50;;
14732;SDS011;7457;50.960;6.830;2024-03-23T14:09:11;1.45;;;1.35;;
14732;SDS011;7457;50.960;6.830;2024-03-23T14:11:45;1.70;;;1.20;;
14732;SDS011;7457;50.960;6.830;2024-03-23T14:14:11;2.00;;;1.15;;
14732;SDS011;7457;50.960;6.830;2024-03-23T14:16:37;1.40;;;1.27;;
14732;SDS011;7457;50.960;6.830;2024-03-23T14:19:03;2.42;;;1.40;;
14732;SDS011;7457;50.960;6.830;2024-03-23T14:21:30;2.00;;;1.63;;
14732;SDS011;7457;50.960;6.830;2024-03-23T14:23:56;4.15;;;2.20;;
14732;SDS011;7457;50.960;6.830;2024-03-23T14:26:22;3.22;;;1.70;;
14732;SDS011;7457;50.960;6.830;2024-03-23T14:28:49;4.15;;;2.00;;
14732;SDS011;7457;50.960;6.830;2024-03-23T14:31:15;4.00;;;2.30;;
14732;SDS011;7457;50.960;6.830;2024-03-23T14:33:41;3.75;;;2.00;;
14732;SDS011;7457;50.960;6.830;2024-03-23T14:36:11;2.92;;;1.85;;
14732;SDS011;7457;50.960;6.830;2024-03-23T14:38:41;5.03;;;2.58;;
14732;SDS011;7457;50.960;6.830;2024-03-23T14:41:07;6.72;;;2.00;;
14732;SDS011;7457;50.960;6.830;2024-03-23T14:43:33;2.88;;;1.90;;
14732;SDS011;7457;50.960;6.830;2024-03-23T14:46:14;4.90;;;2.17;;
14732;SDS011;7457;50.960;6.830;2024-03-23T14:48:42;4.60;;;1.70;;
14732;SDS011;7457;50.960;6.830;2024-03-23T14:51:09;2.72;;;1.25;;
14732;SDS011;7457;50.960;6.830;2024-03-23T14:53:36;3.83;;;2.22;;
14732;SDS011;7457;50.960;6.830;2024-03-23T14:56:06;3.65;;;1.50;;
14732;SDS011;7457;50.960;6.830;2024-03-23T14:58:32;2.20;;;1.30;;
14732;SDS011;7457;50.960;6.830;2024-03-23T15:01:09;4.10;;;1.65;;
14732;SDS011;7457;50.960;6.830;2024-03-23T15:03:35;2.28;;;1.40;;
14732;SDS011;7457;50.960;6.830;2024-03-23T15:06:04;2.45;;;1.35;;
14732;SDS011;7457;50.960;6.830;2024-03-23T15:08:31;2.80;;;1.40;;
14732;SDS011;7457;50.960;6.830;2024-03-23T15:11:00;2.78;;;1.67;;
14732;SDS011;7457;50.960;6.830;2024-03-23T15:13:31;2.53;;;1.60;;
14732;SDS011;7457;50.960;6.830;2024-03-23T15:15:57;2.28;;;1.30;;
14732;SDS011;7457;50.960;6.830;2024-03-23T15:18:24;6.57;;;2.92;;
14732;SDS011;7457;50.960;6.830;2024-03-23T15:20:54;4.05;;;2.80;;
14732;SDS011;7457;50.960;6.830;2024-03-23T15:23:20;2.45;;;1.90;;
14732;SDS011;7457;50.960;6.830;2024-03-23T15:25:53;3.13;;;2.40;;
14732;SDS011;7457;50.960;6.830;2024-03-23T15:28:22;2.47;;;1.67;;
14732;SDS011;7457;50.960;6.830;2024-03-23T15:30:49;3.53;;;1.83;;
14732;SDS011;7457;50.960;6.830;2024-03-23T15:33:15;2.60;;;1.80;;
14732;SDS011;7457;50.960;6.830;2024-03-23T15:35:41;1.95;;;1.77;;
14732;SDS011;7457;50.960;6.830;2024-03-23T15:38:07;2.28;;;2.03;;
14732;SDS011;7457;50.960;6.830;2024-03-23T15:40:33;1.80;;;1.70;;
14732;SDS011;7457;50.960;6.830;2024-03-23T15:42:58;2.38;;;1.80;;
14732;SDS011;7457;50.960;6.830;2024-03-23T15:45:25;3.17;;;2.10;;
14732;SDS011;7457;50.960;6.830;2024-03-23T15:47:51;4.15;;;2.28;;
14732;SDS011;7457;50.960;6.830;2024-03-23T15:50:17;3.13;;;2.13;;
14732;SDS011;7457;50.960;6.830;2024-03-23T15:52:43;3.10;;;1.98;;
14732;SDS011;7457;50.960;6.830;2024-03-23T15:55:08;4.43;;;1.90;;
14732;SDS011;7457;50.960;6.830;2024-03-23T15:57:35;2.53;;;2.20;;
14732;SDS011;7457;50.960;6.830;2024-03-23T16:00:02;2.53;;;1.73;;
14732;SDS011;7457;50.960;6.830;2024-03-23T16:02:37;4.35;;;2.15;;
14732;SDS011;7457;50.960;6.830;2024-03-23T16:05:02;3.53;;;2.20;;
14732;SDS011;7457;50.960;6.830;2024-03-23T16:07:29;2.42;;;2.05;;
14732;SDS011;7457;50.960;6.830;2024-03-23T16:09:54;5.15;;;2.10;;
14732;SDS011;7457;50.960;6.830;2024-03-23T16:12:21;1.88;;;1.55;;